createdAt,value
2022-10-06T00:02:19.263Z,62.92
2022-10-06T00:04:47.145Z,63.10
2022-10-06T00:07:14.795Z,64.45
2022-10-06T00:09:42.037Z,69.78
2022-10-06T00:12:09.609Z,72.15
2022-10-06T00:14:36.953Z,74.85
2022-10-06T00:17:03.708Z,76.00
2022-10-06T00:19:30.199Z,77.60
2022-10-06T00:21:56.729Z,78.40
2022-10-06T00:24:23.272Z,81.18
2022-10-06T00:26:49.796Z,84.57
2022-10-06T00:29:16.326Z,82.45
2022-10-06T00:31:43.768Z,84.72
2022-10-06T00:34:10.338Z,81.38
2022-10-06T00:36:37.295Z,78.43
2022-10-06T00:39:03.849Z,77.22
2022-10-06T00:41:30.431Z,73.55
2022-10-06T00:43:58.869Z,74.70
2022-10-06T00:46:47.172Z,72.53
2022-10-06T00:49:22.244Z,70.10
2022-10-06T00:51:52.826Z,73.10
2022-10-06T00:54:19.874Z,69.70
2022-10-06T00:56:47.278Z,72.90
2022-10-06T00:59:16.694Z,70.40
2022-10-06T01:01:53.834Z,79.72
2022-10-06T01:04:21.139Z,71.55
2022-10-06T01:06:56.675Z,72.90
2022-10-06T01:09:24.072Z,72.25
2022-10-06T01:11:53.907Z,68.97
2022-10-06T01:14:21.562Z,69.88
2022-10-06T01:16:56.103Z,70.13
2022-10-06T01:19:59.315Z,72.97
2022-10-06T01:22:36.749Z,66.72
2022-10-06T01:25:06.108Z,66.00
2022-10-06T01:27:34.896Z,70.68
2022-10-06T01:30:04.631Z,69.10
2022-10-06T01:32:39.075Z,69.75
2022-10-06T01:35:07.621Z,67.28
2022-10-06T01:37:34.483Z,69.72
2022-10-06T01:40:01.095Z,70.90
2022-10-06T01:42:31.757Z,72.30
2022-10-06T01:44:58.333Z,72.35
2022-10-06T01:47:24.886Z,71.38
2022-10-06T01:49:51.366Z,70.40
2022-10-06T01:52:18.100Z,73.43
2022-10-06T01:54:44.645Z,72.47
2022-10-06T01:57:11.196Z,72.20
2022-10-06T01:59:38.138Z,69.10
2022-10-06T02:02:05.028Z,68.20
2022-10-06T02:04:31.767Z,68.63
2022-10-06T02:06:58.990Z,66.45
2022-10-06T02:09:25.671Z,65.82
2022-10-06T02:11:52.225Z,66.30
2022-10-06T02:14:18.718Z,64.93
2022-10-06T02:16:45.833Z,61.03
2022-10-06T02:19:12.530Z,60.15
2022-10-06T02:21:39.078Z,59.72
2022-10-06T02:24:05.854Z,57.35
2022-10-06T02:26:32.460Z,54.75
2022-10-06T02:28:59.118Z,53.95
2022-10-06T02:31:25.758Z,52.95
2022-10-06T02:33:52.495Z,50.55
2022-10-06T02:36:19.175Z,48.25
2022-10-06T02:38:45.704Z,47.45
2022-10-06T02:41:12.273Z,48.40
2022-10-06T02:43:38.784Z,44.28
2022-10-06T02:46:08.702Z,41.13
2022-10-06T02:48:35.432Z,40.90
2022-10-06T02:51:08.823Z,42.42
2022-10-06T02:53:36.489Z,38.20
2022-10-06T02:56:08.785Z,36.80
2022-10-06T02:58:35.288Z,35.58
2022-10-06T03:01:02.773Z,35.85
2022-10-06T03:03:29.865Z,31.50
2022-10-06T03:06:23.349Z,31.90
2022-10-06T03:08:54.221Z,29.30
2022-10-06T03:11:23.831Z,29.27
2022-10-06T03:13:51.541Z,27.80
2022-10-06T03:16:22.754Z,24.90
2022-10-06T03:18:50.709Z,25.02
2022-10-06T03:21:18.537Z,25.63
2022-10-06T03:23:47.798Z,25.40
2022-10-06T03:26:16.018Z,24.88
2022-10-06T03:28:42.590Z,24.40
2022-10-06T03:31:09.321Z,26.40
2022-10-06T03:33:36.295Z,23.83
2022-10-06T03:36:08.583Z,23.73
2022-10-06T03:38:35.785Z,23.45
2022-10-06T03:41:14.001Z,24.48
2022-10-06T03:43:43.203Z,23.27
2022-10-06T03:46:12.639Z,23.73
2022-10-06T03:48:39.333Z,25.30
2022-10-06T03:51:11.748Z,25.75
2022-10-06T03:53:38.806Z,27.33
2022-10-06T03:56:11.769Z,29.75
2022-10-06T03:58:40.993Z,29.05
2022-10-06T04:01:29.329Z,27.90
2022-10-06T04:03:57.843Z,28.33
2022-10-06T04:06:25.592Z,30.60
2022-10-06T04:08:52.892Z,30.98
2022-10-06T04:11:22.482Z,30.75
2022-10-06T04:13:54.867Z,30.55
2022-10-06T04:16:24.384Z,31.60
2022-10-06T04:18:52.946Z,32.67
2022-10-06T04:21:20.096Z,33.33
2022-10-06T04:23:46.666Z,34.65
2022-10-06T04:26:20.716Z,34.72
2022-10-06T04:28:47.661Z,36.47
2022-10-06T04:31:17.250Z,38.58
2022-10-06T04:33:46.914Z,41.13
2022-10-06T04:36:22.723Z,41.00
2022-10-06T04:38:51.314Z,42.50
2022-10-06T04:41:20.203Z,43.05
2022-10-06T04:43:47.799Z,42.90
2022-10-06T04:46:40.752Z,45.83
2022-10-06T04:49:02.363Z,43.00
2022-10-06T04:51:29.108Z,41.60
2022-10-06T04:53:55.683Z,42.22
2022-10-06T04:56:31.936Z,38.97
2022-10-06T04:58:58.677Z,41.40
2022-10-06T05:01:28.679Z,39.47
2022-10-06T05:03:57.091Z,38.85
2022-10-06T05:06:29.287Z,40.72
2022-10-06T05:09:04.931Z,44.50
2022-10-06T05:11:32.023Z,47.08
2022-10-06T05:14:00.243Z,46.60
2022-10-06T05:16:29.144Z,46.33
2022-10-06T05:18:56.119Z,47.20
2022-10-06T05:21:25.602Z,48.78
2022-10-06T05:23:52.133Z,47.58
2022-10-06T05:26:24.650Z,48.25
2022-10-06T05:28:51.322Z,50.85
2022-10-06T05:31:20.534Z,53.92
2022-10-06T05:33:47.432Z,51.00
2022-10-06T05:36:16.499Z,53.00
2022-10-06T05:38:44.290Z,54.17
2022-10-06T05:41:13.433Z,54.08
2022-10-06T05:43:40.673Z,53.78
2022-10-06T05:46:12.693Z,55.15
2022-10-06T05:48:39.267Z,53.40
2022-10-06T05:51:08.025Z,54.97
2022-10-06T05:53:35.864Z,57.42
2022-10-06T05:56:04.188Z,53.30
2022-10-06T05:58:31.913Z,52.58
2022-10-06T06:01:23.640Z,55.00
2022-10-06T06:03:51.371Z,52.50
2022-10-06T06:06:31.086Z,51.65
2022-10-06T06:08:59.484Z,50.10
2022-10-06T06:11:27.828Z,50.92
2022-10-06T06:14:02.451Z,48.95
2022-10-06T06:16:33.139Z,50.10
2022-10-06T06:19:01.306Z,47.88
2022-10-06T06:21:29.230Z,49.38
2022-10-06T06:23:56.349Z,53.22
2022-10-06T06:26:25.466Z,50.97
2022-10-06T06:29:02.749Z,48.58
2022-10-06T06:31:31.865Z,47.30
2022-10-06T06:34:00.315Z,46.88
2022-10-06T06:36:28.351Z,45.75
2022-10-06T06:38:56.771Z,44.10
2022-10-06T06:41:25.775Z,41.92
2022-10-06T06:43:53.478Z,40.92
2022-10-06T06:46:24.285Z,38.42
2022-10-06T06:48:55.747Z,39.78
2022-10-06T06:51:24.168Z,38.85
2022-10-06T06:53:52.403Z,37.42
2022-10-06T06:56:23.751Z,37.75
2022-10-06T06:58:50.627Z,39.72
2022-10-06T07:01:19.369Z,43.53
2022-10-06T07:03:58.363Z,41.60
2022-10-06T07:06:28.772Z,44.22
2022-10-06T07:08:57.731Z,46.63
2022-10-06T07:11:30.199Z,51.42
2022-10-06T07:14:01.198Z,54.25
2022-10-06T07:16:47.848Z,60.05
2022-10-06T07:19:34.073Z,54.33
2022-10-06T07:22:28.024Z,56.72
2022-10-06T07:25:08.383Z,62.13
2022-10-06T07:27:38.061Z,63.78
2022-10-06T07:30:05.812Z,68.20
2022-10-06T07:32:32.957Z,73.13
2022-10-06T07:35:00.636Z,88.00
2022-10-06T07:37:28.904Z,96.75
2022-10-06T07:39:55.754Z,114.97
2022-10-06T07:42:22.410Z,142.35
2022-10-06T07:45:07.893Z,164.40
2022-10-06T07:47:38.276Z,187.40
2022-10-06T07:50:08.678Z,230.40
2022-10-06T07:52:39.460Z,280.98
2022-10-06T07:55:06.897Z,320.55
2022-10-06T07:57:35.409Z,346.40
2022-10-06T08:00:07.296Z,360.98
2022-10-06T08:02:35.813Z,383.50
2022-10-06T08:05:04.173Z,389.92
2022-10-06T08:07:30.947Z,406.33
2022-10-06T08:09:57.423Z,412.15
2022-10-06T08:12:40.631Z,407.65
2022-10-06T08:15:08.738Z,399.85
2022-10-06T08:17:36.811Z,309.42
2022-10-06T08:20:09.092Z,291.80
2022-10-06T08:22:36.322Z,253.52
2022-10-06T08:25:07.132Z,206.90
2022-10-06T08:27:35.027Z,109.28
2022-10-06T08:30:02.140Z,176.77
2022-10-06T08:32:28.977Z,206.70
2022-10-06T08:34:55.745Z,175.48
2022-10-06T08:37:26.800Z,206.95
2022-10-06T08:39:54.514Z,155.95
2022-10-06T08:42:25.471Z,101.95
2022-10-06T08:45:18.537Z,99.13
2022-10-06T08:48:02.568Z,62.42
2022-10-06T08:50:32.969Z,53.50
2022-10-06T08:53:23.757Z,87.47
2022-10-06T08:56:21.202Z,70.05
2022-10-06T08:58:59.159Z,76.57
2022-10-06T09:01:29.094Z,51.33
2022-10-06T09:04:01.695Z,56.17
2022-10-06T09:06:55.730Z,66.22
2022-10-06T09:09:43.244Z,73.68
2022-10-06T09:12:37.761Z,113.38
2022-10-06T09:15:33.724Z,131.75
2022-10-06T09:18:07.353Z,155.35
2022-10-06T09:20:47.254Z,147.40
2022-10-06T09:23:38.030Z,168.00
2022-10-06T09:26:25.002Z,95.65
2022-10-06T09:28:52.779Z,53.85
2022-10-06T09:31:21.430Z,48.53
2022-10-06T09:33:51.381Z,42.28
2022-10-06T09:36:17.880Z,44.53
2022-10-06T09:38:54.463Z,40.08
2022-10-06T09:41:40.538Z,58.65
2022-10-06T09:44:25.452Z,57.47
2022-10-06T09:46:52.539Z,61.70
2022-10-06T09:49:21.653Z,54.15
2022-10-06T09:52:15.006Z,52.45
2022-10-06T09:54:44.912Z,30.05
2022-10-06T09:57:24.510Z,21.20
2022-10-06T09:59:51.990Z,19.75
2022-10-06T10:02:39.751Z,19.60
2022-10-06T10:05:19.186Z,17.80
2022-10-06T10:07:48.302Z,18.13
2022-10-06T10:10:25.715Z,17.95
2022-10-06T10:12:58.435Z,20.02
2022-10-06T10:15:35.207Z,19.10
2022-10-06T10:18:04.698Z,21.15
2022-10-06T10:20:36.250Z,19.33
2022-10-06T10:23:31.940Z,19.05
2022-10-06T10:26:27.158Z,21.30
2022-10-06T10:29:16.029Z,22.20
2022-10-06T10:32:08.268Z,26.65
2022-10-06T10:34:38.302Z,30.45
2022-10-06T10:37:12.271Z,32.58
2022-10-06T10:42:35.155Z,21.52
2022-10-06T10:45:05.283Z,21.83
2022-10-06T10:47:37.463Z,16.67
2022-10-06T10:50:13.199Z,14.55
2022-10-06T10:52:42.829Z,13.75
2022-10-06T10:55:23.239Z,12.80
2022-10-06T10:57:51.076Z,12.95
2022-10-06T11:00:25.338Z,12.88
2022-10-06T11:02:54.954Z,13.10
2022-10-06T11:05:32.174Z,15.45
2022-10-06T11:08:16.671Z,13.32
2022-10-06T11:11:37.842Z,13.90
2022-10-06T11:14:17.691Z,14.57
2022-10-06T11:16:57.012Z,13.98
2022-10-06T11:19:45.110Z,13.25
2022-10-06T11:22:23.000Z,13.63
2022-10-06T11:25:21.374Z,14.75
2022-10-06T11:28:17.285Z,13.35
2022-10-06T11:31:25.992Z,12.65
2022-10-06T11:33:54.847Z,13.38
2022-10-06T11:36:34.883Z,14.05
2022-10-06T11:39:07.262Z,13.93
2022-10-06T11:41:42.609Z,13.02
2022-10-06T11:44:28.533Z,12.63
2022-10-06T11:47:00.041Z,12.68
2022-10-06T11:49:29.530Z,12.07
2022-10-06T11:52:08.802Z,12.70
2022-10-06T11:54:47.412Z,12.95
2022-10-06T11:57:26.219Z,14.43
2022-10-06T11:59:56.650Z,12.43
2022-10-06T12:02:35.196Z,12.73
2022-10-06T12:05:49.611Z,12.93
2022-10-06T12:08:08.211Z,12.32
2022-10-06T12:10:35.250Z,13.35
2022-10-06T12:13:40.049Z,12.93
2022-10-06T12:19:22.387Z,13.32
2022-10-06T12:21:53.084Z,13.73
2022-10-06T12:24:39.098Z,12.50
2022-10-06T12:27:36.553Z,12.85
2022-10-06T12:30:16.900Z,14.77
2022-10-06T12:32:57.386Z,13.50
2022-10-06T12:35:40.005Z,13.10
2022-10-06T12:38:29.136Z,14.63
2022-10-06T12:40:56.309Z,12.90
2022-10-06T12:43:22.939Z,13.23
2022-10-06T12:46:22.871Z,12.75
2022-10-06T12:48:55.559Z,12.48
2022-10-06T12:51:35.461Z,12.57
2022-10-06T12:54:23.769Z,12.98
2022-10-06T12:56:58.840Z,12.65
2022-10-06T12:59:32.160Z,13.07
2022-10-06T13:02:01.522Z,12.77
2022-10-06T13:04:43.708Z,13.20
2022-10-06T13:07:24.347Z,12.07
2022-10-06T13:09:54.612Z,13.05
2022-10-06T13:12:21.075Z,12.27
2022-10-06T13:14:48.263Z,12.57
2022-10-06T13:17:14.969Z,12.13
2022-10-06T13:19:44.575Z,12.35
2022-10-06T13:22:14.399Z,11.77
2022-10-06T13:24:40.964Z,12.52
2022-10-06T13:27:17.667Z,11.90
2022-10-06T13:29:44.343Z,12.38
2022-10-06T13:32:18.066Z,11.95
2022-10-06T13:34:45.822Z,12.73
2022-10-06T13:37:15.396Z,11.85
2022-10-06T13:39:42.039Z,10.57
2022-10-06T13:42:17.822Z,11.18
2022-10-06T13:44:57.382Z,10.07
2022-10-06T13:47:29.180Z,11.05
2022-10-06T13:49:59.080Z,11.02
2022-10-06T13:52:37.895Z,11.32
2022-10-06T13:55:14.014Z,11.30
2022-10-06T13:57:45.571Z,11.80
2022-10-06T14:00:15.278Z,11.38
2022-10-06T14:02:47.149Z,11.95
2022-10-06T14:05:19.925Z,12.07
2022-10-06T14:07:47.475Z,12.23
2022-10-06T14:10:54.471Z,10.43
2022-10-06T14:13:26.482Z,10.85
2022-10-06T14:16:01.960Z,10.60
2022-10-06T14:18:38.683Z,11.48
2022-10-06T14:21:31.526Z,10.23
2022-10-06T14:23:59.334Z,10.90
2022-10-06T14:26:31.571Z,11.75
2022-10-06T14:28:59.022Z,11.93
2022-10-06T14:31:27.927Z,12.48
2022-10-06T14:33:56.300Z,14.38
2022-10-06T14:36:34.727Z,13.75
2022-10-06T14:39:04.885Z,15.27
2022-10-06T14:41:31.688Z,14.90
2022-10-06T14:44:01.484Z,16.17
2022-10-06T14:46:29.090Z,15.40
2022-10-06T14:48:56.121Z,16.48
2022-10-06T14:51:24.660Z,16.45
2022-10-06T14:53:56.548Z,15.32
2022-10-06T14:56:26.120Z,16.92
2022-10-06T14:58:53.072Z,16.60
2022-10-06T15:01:23.041Z,16.60
2022-10-06T15:03:54.525Z,15.57
2022-10-06T15:06:39.701Z,16.25
2022-10-06T15:09:06.792Z,14.40
2022-10-06T15:11:35.682Z,14.57
2022-10-06T15:14:03.606Z,14.60
2022-10-06T15:16:32.422Z,14.43
2022-10-06T15:19:00.074Z,16.15
2022-10-06T15:21:27.719Z,14.38
2022-10-06T15:23:59.771Z,12.82
2022-10-06T15:26:45.215Z,13.80
2022-10-06T15:29:13.364Z,13.05
2022-10-06T15:31:42.936Z,14.30
2022-10-06T15:34:12.272Z,12.90
2022-10-06T15:36:40.731Z,14.77
2022-10-06T15:39:12.602Z,12.88
2022-10-06T15:41:41.186Z,12.45
2022-10-06T15:44:08.521Z,12.43
2022-10-06T15:46:40.467Z,12.23
2022-10-06T15:49:12.623Z,12.77
2022-10-06T15:51:45.174Z,13.82
2022-10-06T15:54:12.707Z,13.18
2022-10-06T15:56:40.063Z,12.63
2022-10-06T15:59:06.897Z,13.68
2022-10-06T16:01:35.021Z,12.82
2022-10-06T16:04:11.520Z,12.80
2022-10-06T16:06:44.232Z,12.40
2022-10-06T16:09:12.358Z,11.98
2022-10-06T16:11:39.572Z,12.10
2022-10-06T16:14:06.917Z,13.25
2022-10-06T16:16:34.186Z,13.95
2022-10-06T16:19:02.371Z,12.95
2022-10-06T16:21:33.315Z,13.07
2022-10-06T16:24:00.400Z,14.80
2022-10-06T16:26:27.961Z,15.43
2022-10-06T16:28:54.634Z,17.40
2022-10-06T16:31:22.069Z,18.40
2022-10-06T16:33:49.181Z,21.85
2022-10-06T16:36:19.499Z,20.13
2022-10-06T16:38:49.675Z,22.90
2022-10-06T16:41:16.162Z,25.35
2022-10-06T16:43:44.506Z,22.17
2022-10-06T16:46:32.656Z,23.77
2022-10-06T16:49:00.935Z,23.30
2022-10-06T16:51:28.754Z,25.45
2022-10-06T16:53:58.250Z,30.20
2022-10-06T16:56:30.495Z,34.17
2022-10-06T16:58:59.248Z,42.75
2022-10-06T17:01:31.031Z,90.93
2022-10-06T17:04:12.780Z,117.80
2022-10-06T17:06:45.539Z,129.73
2022-10-06T17:09:14.575Z,146.25
2022-10-06T17:11:46.459Z,155.20
2022-10-06T17:14:13.427Z,149.23
2022-10-06T17:16:42.819Z,138.23
2022-10-06T17:19:11.540Z,134.60
2022-10-06T17:21:47.992Z,125.30
2022-10-06T17:24:15.281Z,107.00
2022-10-06T17:26:43.972Z,98.05
2022-10-06T17:29:19.058Z,69.22
2022-10-06T17:31:47.048Z,52.65
2022-10-06T17:34:22.475Z,38.08
2022-10-06T17:36:51.820Z,34.45
2022-10-06T17:39:22.911Z,30.05
2022-10-06T17:41:52.437Z,28.63
2022-10-06T17:44:29.283Z,28.85
2022-10-06T17:47:00.425Z,25.90
2022-10-06T17:49:29.918Z,26.63
2022-10-06T17:51:56.503Z,31.13
2022-10-06T17:54:25.140Z,32.33
2022-10-06T17:56:55.797Z,33.92
2022-10-06T17:59:25.077Z,38.95
2022-10-06T18:01:56.381Z,42.55
2022-10-06T18:04:23.331Z,48.63
2022-10-06T18:06:52.968Z,53.45
2022-10-06T18:09:19.593Z,54.45
2022-10-06T18:11:55.604Z,58.60
2022-10-06T18:14:33.269Z,61.75
2022-10-06T18:17:01.905Z,66.30
2022-10-06T18:19:33.834Z,67.78
2022-10-06T18:22:10.203Z,67.97
2022-10-06T18:24:38.358Z,73.55
2022-10-06T18:27:06.447Z,75.93
2022-10-06T18:29:35.732Z,75.57
2022-10-06T18:37:36.583Z,69.82
2022-10-06T18:40:06.774Z,71.80
2022-10-06T18:42:33.320Z,67.45
2022-10-06T18:45:18.505Z,65.85
2022-10-06T18:48:03.378Z,64.75
2022-10-06T18:50:30.939Z,67.35
2022-10-06T18:52:57.498Z,68.68
2022-10-06T18:55:24.232Z,63.95
2022-10-06T18:57:51.420Z,61.50
2022-10-06T19:00:18.539Z,59.08
2022-10-06T19:02:48.503Z,60.10
2022-10-06T19:05:17.297Z,58.75
2022-10-06T19:07:44.772Z,62.22
2022-10-06T19:10:12.009Z,62.67
2022-10-06T19:12:38.555Z,62.13
2022-10-06T19:15:05.671Z,63.28
2022-10-06T19:17:32.238Z,67.85
2022-10-06T19:19:58.749Z,69.90
2022-10-06T19:22:25.246Z,68.57
2022-10-06T19:24:52.356Z,74.10
2022-10-06T19:27:28.022Z,75.32
2022-10-06T19:29:56.887Z,79.50
2022-10-06T19:32:32.089Z,79.82
2022-10-06T19:34:58.929Z,85.80
2022-10-06T19:37:30.691Z,85.47
2022-10-06T19:39:57.282Z,90.57
2022-10-06T19:42:42.500Z,96.90
2022-10-06T19:45:09.640Z,104.22
2022-10-06T19:47:36.252Z,106.63
2022-10-06T19:50:08.679Z,120.95
2022-10-06T19:55:04.459Z,118.65
2022-10-06T19:57:32.547Z,132.90
2022-10-06T19:59:59.096Z,146.13
2022-10-06T20:02:25.622Z,166.82
2022-10-06T20:04:52.189Z,175.13
2022-10-06T20:07:21.848Z,181.55
2022-10-06T20:09:48.858Z,194.95
2022-10-06T20:12:18.646Z,195.13
2022-10-06T20:14:47.468Z,203.35
2022-10-06T20:17:13.958Z,206.60
2022-10-06T20:19:40.443Z,208.65
2022-10-06T20:22:06.950Z,216.13
2022-10-06T20:24:33.981Z,220.60
2022-10-06T20:27:00.553Z,239.05
2022-10-06T20:29:28.418Z,249.32
2022-10-06T20:31:57.007Z,247.13
2022-10-06T20:34:26.743Z,252.60
2022-10-06T20:36:56.147Z,247.80
2022-10-06T20:39:41.636Z,249.43
2022-10-06T20:42:14.563Z,241.10
2022-10-06T20:44:42.409Z,249.82
2022-10-06T20:47:10.477Z,255.73
2022-10-06T20:49:37.274Z,253.98
2022-10-06T20:52:05.299Z,248.25
2022-10-06T20:54:34.921Z,251.07
2022-10-06T20:57:03.871Z,244.88
2022-10-06T20:59:30.846Z,251.02
2022-10-06T21:01:59.906Z,246.02
2022-10-06T21:04:29.973Z,242.77
2022-10-06T21:06:57.349Z,237.77
2022-10-06T21:09:24.534Z,245.05
2022-10-06T21:11:51.612Z,230.23
2022-10-06T21:14:18.322Z,235.10
2022-10-06T21:16:47.119Z,233.80
2022-10-06T21:19:16.726Z,230.55
2022-10-06T21:21:50.627Z,225.15
2022-10-06T21:24:17.422Z,212.25
2022-10-06T21:26:43.948Z,215.38
2022-10-06T21:29:15.422Z,202.05
2022-10-06T21:31:42.669Z,187.15
2022-10-06T21:34:10.356Z,183.50
2022-10-06T21:36:36.961Z,178.80
2022-10-06T21:39:06.616Z,174.88
2022-10-06T21:41:41.674Z,180.15
2022-10-06T21:44:09.486Z,153.43
2022-10-06T21:46:40.617Z,150.25
2022-10-06T21:49:10.933Z,152.88
2022-10-06T21:51:38.259Z,142.73
2022-10-06T21:54:04.937Z,137.63
2022-10-06T21:56:33.379Z,131.40
2022-10-06T21:59:00.397Z,124.03
2022-10-06T22:01:30.016Z,105.18
2022-10-06T22:03:58.171Z,96.75
2022-10-06T22:06:24.697Z,93.80
2022-10-06T22:08:51.253Z,93.13
2022-10-06T22:11:23.169Z,83.10
2022-10-06T22:13:52.652Z,74.53
2022-10-06T22:16:22.235Z,71.20
2022-10-06T22:18:49.513Z,69.20
2022-10-06T22:21:15.936Z,69.20
2022-10-06T22:23:44.149Z,70.35
2022-10-06T22:26:12.159Z,69.47
2022-10-06T22:28:39.128Z,66.55
2022-10-06T22:31:08.237Z,68.28
2022-10-06T22:33:35.787Z,67.28
2022-10-06T22:36:03.086Z,67.90
2022-10-06T22:38:30.833Z,65.55
2022-10-06T22:41:03.219Z,63.40
2022-10-06T22:43:30.803Z,65.60
2022-10-06T22:45:57.300Z,73.40
2022-10-06T22:48:24.090Z,77.65
2022-10-06T22:50:51.401Z,88.28
2022-10-06T22:53:20.975Z,81.32
2022-10-06T22:55:48.137Z,82.03
2022-10-06T22:58:15.872Z,89.72
2022-10-06T23:00:43.749Z,97.18
2022-10-06T23:03:11.010Z,110.80
2022-10-06T23:05:37.780Z,115.20
2022-10-06T23:08:05.420Z,113.55
2022-10-06T23:10:33.877Z,114.22
2022-10-06T23:13:00.846Z,111.78
2022-10-06T23:15:27.919Z,117.50
2022-10-06T23:17:54.696Z,116.05
2022-10-06T23:22:48.372Z,128.20
2022-10-06T23:25:14.933Z,138.15
2022-10-06T23:27:41.585Z,142.85
2022-10-06T23:30:09.131Z,144.77
2022-10-06T23:32:37.444Z,147.65
2022-10-06T23:35:04.518Z,156.82
2022-10-06T23:37:31.165Z,151.35
2022-10-06T23:39:57.698Z,156.27
2022-10-06T23:42:24.217Z,158.20
2022-10-06T23:44:50.675Z,160.23
2022-10-06T23:47:17.150Z,157.07
2022-10-06T23:49:43.682Z,148.50
2022-10-06T23:52:10.334Z,143.43
2022-10-06T23:54:36.969Z,144.52
2022-10-06T23:57:03.953Z,142.43
2022-10-06T23:59:31.501Z,154.25
